createdAt,value
2023-05-17T00:00:01.617Z,23.70
2023-05-17T00:02:29.661Z,22.10
2023-05-17T00:04:57.825Z,19.13
2023-05-17T00:07:27.189Z,20.50
2023-05-17T00:09:55.339Z,17.88
2023-05-17T00:12:23.960Z,22.38
2023-05-17T00:14:53.515Z,15.13
2023-05-17T00:17:21.599Z,18.48
2023-05-17T00:19:49.565Z,30.35
2023-05-17T00:22:17.510Z,22.15
2023-05-17T00:24:46.828Z,21.98
2023-05-17T00:27:14.806Z,24.65
2023-05-17T00:29:43.780Z,23.90
2023-05-17T00:32:12.456Z,23.30
2023-05-17T00:34:40.386Z,25.58
2023-05-17T00:37:08.405Z,30.40
2023-05-17T00:39:36.622Z,24.38
2023-05-17T00:42:07.524Z,25.23
2023-05-17T00:44:35.944Z,22.80
2023-05-17T00:47:03.992Z,25.92
2023-05-17T00:49:32.030Z,28.90
2023-05-17T00:52:00.818Z,17.63
2023-05-17T00:54:29.137Z,22.73
2023-05-17T00:56:59.518Z,19.90
2023-05-17T00:59:29.447Z,23.10
2023-05-17T01:01:57.294Z,26.67
2023-05-17T01:04:25.692Z,23.80
2023-05-17T01:06:53.846Z,23.70
2023-05-17T01:09:21.792Z,25.38
2023-05-17T01:11:57.072Z,28.58
2023-05-17T01:14:36.520Z,28.52
2023-05-17T01:17:08.400Z,27.02
2023-05-17T01:19:54.047Z,27.08
2023-05-17T01:22:29.330Z,23.98
2023-05-17T01:25:09.961Z,23.90
2023-05-17T01:27:42.394Z,26.38
2023-05-17T01:30:13.608Z,24.23
2023-05-17T01:32:43.291Z,28.92
2023-05-17T01:35:12.624Z,27.85
2023-05-17T01:37:40.760Z,26.02
2023-05-17T01:40:09.892Z,26.88
2023-05-17T01:42:41.218Z,21.67
2023-05-17T01:45:14.521Z,29.25
2023-05-17T01:47:46.870Z,26.27
2023-05-17T01:50:17.011Z,23.08
2023-05-17T01:52:51.441Z,27.80
2023-05-17T01:55:26.235Z,17.70
2023-05-17T01:57:57.618Z,27.10
2023-05-17T02:00:26.863Z,27.88
2023-05-17T02:02:55.051Z,27.77
2023-05-17T02:05:23.219Z,22.50
2023-05-17T02:07:51.281Z,34.75
2023-05-17T02:10:19.625Z,26.50
2023-05-17T02:12:47.734Z,22.60
2023-05-17T02:15:17.478Z,22.65
2023-05-17T02:17:46.007Z,23.65
2023-05-17T02:20:15.720Z,24.98
2023-05-17T02:22:43.621Z,24.77
2023-05-17T02:25:11.750Z,22.75
2023-05-17T02:27:41.396Z,27.58
2023-05-17T02:30:09.946Z,32.25
2023-05-17T02:32:39.460Z,23.92
2023-05-17T02:35:08.616Z,24.65
2023-05-17T02:37:36.693Z,23.38
2023-05-17T02:40:09.838Z,23.48
2023-05-17T02:42:38.270Z,21.58
2023-05-17T02:45:06.843Z,25.98
2023-05-17T02:47:35.070Z,28.42
2023-05-17T02:50:05.031Z,27.15
2023-05-17T02:52:33.217Z,27.42
2023-05-17T02:55:01.251Z,29.42
2023-05-17T02:57:29.403Z,24.20
2023-05-17T02:59:57.536Z,24.42
2023-05-17T03:02:26.127Z,30.65
2023-05-17T03:04:54.655Z,29.80
2023-05-17T03:07:24.884Z,27.70
2023-05-17T03:09:53.110Z,28.25
2023-05-17T03:12:21.454Z,20.50
2023-05-17T03:14:49.772Z,27.02
2023-05-17T03:17:17.769Z,24.80
2023-05-17T03:19:46.297Z,28.67
2023-05-17T03:22:14.565Z,22.70
2023-05-17T03:24:43.916Z,24.55
2023-05-17T03:27:11.916Z,27.42
2023-05-17T03:29:41.495Z,24.60
2023-05-17T03:32:09.996Z,22.02
2023-05-17T03:34:38.098Z,27.10
2023-05-17T03:37:06.608Z,23.00
2023-05-17T03:39:34.771Z,24.50
2023-05-17T03:42:04.613Z,22.23
2023-05-17T03:44:34.079Z,23.40
2023-05-17T03:47:02.142Z,29.52
2023-05-17T03:49:30.320Z,24.38
2023-05-17T03:51:58.909Z,29.63
2023-05-17T03:54:26.986Z,28.33
2023-05-17T03:56:55.581Z,25.80
2023-05-17T03:59:25.804Z,30.63
2023-05-17T04:01:53.970Z,19.38
2023-05-17T04:04:21.815Z,26.50
2023-05-17T04:06:49.881Z,29.08
2023-05-17T04:09:18.275Z,29.33
2023-05-17T04:11:46.340Z,32.15
2023-05-17T04:14:14.690Z,29.10
2023-05-17T04:16:44.082Z,35.72
2023-05-17T04:19:12.284Z,19.25
2023-05-17T04:21:41.172Z,31.40
2023-05-17T04:24:09.747Z,26.65
2023-05-17T04:26:37.657Z,26.23
2023-05-17T04:29:06.826Z,30.90
2023-05-17T04:31:34.812Z,28.27
2023-05-17T04:34:04.480Z,22.77
2023-05-17T04:36:32.437Z,26.13
2023-05-17T04:39:03.540Z,24.85
2023-05-17T04:41:33.204Z,26.02
2023-05-17T04:44:02.265Z,20.23
2023-05-17T04:46:35.864Z,32.88
2023-05-17T04:49:05.451Z,29.35
2023-05-17T04:51:33.471Z,21.33
2023-05-17T04:54:01.950Z,22.38
2023-05-17T04:56:32.557Z,18.60
2023-05-17T04:59:00.683Z,29.00
2023-05-17T05:01:29.471Z,19.27
2023-05-17T05:04:01.129Z,28.55
2023-05-17T05:06:31.451Z,25.90
2023-05-17T05:08:59.566Z,22.55
2023-05-17T05:11:28.122Z,28.83
2023-05-17T05:13:57.656Z,26.40
2023-05-17T05:16:26.389Z,34.05
2023-05-17T05:18:54.536Z,24.58
2023-05-17T05:21:23.512Z,27.48
2023-05-17T05:23:53.084Z,26.77
2023-05-17T05:26:21.514Z,20.67
2023-05-17T05:28:50.985Z,22.30
2023-05-17T05:31:20.101Z,20.48
2023-05-17T05:33:53.012Z,28.42
2023-05-17T05:36:21.175Z,32.00
2023-05-17T05:38:49.560Z,25.15
2023-05-17T05:41:19.154Z,33.13
2023-05-17T05:43:47.106Z,24.67
2023-05-17T05:46:15.591Z,26.95
2023-05-17T05:48:44.842Z,25.05
2023-05-17T05:51:13.616Z,21.15
2023-05-17T05:53:44.049Z,24.27
2023-05-17T05:56:12.108Z,20.92
2023-05-17T05:58:41.408Z,21.90
2023-05-17T06:01:10.840Z,21.17
2023-05-17T06:03:39.005Z,30.20
2023-05-17T06:06:07.770Z,18.25
2023-05-17T06:08:35.816Z,25.48
2023-05-17T06:11:03.851Z,24.02
2023-05-17T06:13:31.899Z,21.58
2023-05-17T06:16:01.311Z,28.90
2023-05-17T06:18:29.483Z,16.83
2023-05-17T06:20:57.575Z,18.40
2023-05-17T06:23:25.770Z,20.55
2023-05-17T06:25:53.729Z,24.88
2023-05-17T06:28:21.723Z,20.80
2023-05-17T06:30:49.873Z,21.48
2023-05-17T06:33:19.418Z,18.27
2023-05-17T06:35:56.079Z,21.52
2023-05-17T06:38:25.608Z,22.25
2023-05-17T06:40:54.163Z,15.32
2023-05-17T06:43:22.576Z,17.58
2023-05-17T06:45:50.693Z,22.45
2023-05-17T06:48:20.354Z,16.92
2023-05-17T06:50:48.536Z,18.38
2023-05-17T06:53:16.729Z,18.00
2023-05-17T06:55:45.034Z,29.70
2023-05-17T06:58:13.170Z,21.10
2023-05-17T07:00:41.240Z,19.65
2023-05-17T07:03:09.345Z,15.10
2023-05-17T07:05:39.246Z,17.85
2023-05-17T07:08:07.201Z,19.80
2023-05-17T07:10:35.500Z,17.17
2023-05-17T07:13:03.765Z,19.40
2023-05-17T07:15:31.880Z,20.58
2023-05-17T07:18:00.911Z,26.67
2023-05-17T07:20:29.324Z,13.95
2023-05-17T07:22:58.827Z,18.13
2023-05-17T07:25:27.654Z,18.45
2023-05-17T07:27:56.352Z,16.00
2023-05-17T07:30:24.468Z,19.85
2023-05-17T07:32:53.169Z,21.10
2023-05-17T07:35:26.270Z,18.13
2023-05-17T07:37:54.879Z,18.38
2023-05-17T07:40:24.223Z,19.15
2023-05-17T07:42:53.089Z,19.05
2023-05-17T07:45:21.883Z,20.92
2023-05-17T07:47:52.099Z,14.13
2023-05-17T07:50:20.895Z,22.08
2023-05-17T07:52:49.486Z,17.60
2023-05-17T07:55:17.685Z,16.98
2023-05-17T07:57:50.643Z,19.30
2023-05-17T08:00:19.909Z,22.08
2023-05-17T08:02:47.894Z,14.70
2023-05-17T08:05:16.046Z,18.95
2023-05-17T08:07:44.012Z,22.23
2023-05-17T08:10:12.428Z,17.27
2023-05-17T08:12:40.465Z,16.42
2023-05-17T08:15:10.550Z,16.80
2023-05-17T08:17:38.487Z,15.05
2023-05-17T08:20:08.713Z,9.65
2023-05-17T08:22:36.885Z,15.48
2023-05-17T08:25:05.271Z,12.60
2023-05-17T08:27:33.120Z,13.20
2023-05-17T08:30:01.097Z,10.45
2023-05-17T08:32:31.234Z,14.73
2023-05-17T08:34:59.303Z,17.00
2023-05-17T08:37:27.409Z,13.95
2023-05-17T08:39:55.635Z,13.23
2023-05-17T08:42:25.383Z,15.77
2023-05-17T08:44:54.908Z,9.48
2023-05-17T08:47:29.850Z,20.20
2023-05-17T08:50:00.626Z,14.93
2023-05-17T08:52:31.387Z,13.95
2023-05-17T08:55:01.076Z,17.77
2023-05-17T08:57:30.132Z,13.70
2023-05-17T09:00:00.435Z,15.02
2023-05-17T09:02:29.826Z,13.55
2023-05-17T09:04:59.915Z,22.33
2023-05-17T09:07:28.099Z,13.00
2023-05-17T09:09:56.654Z,15.32
2023-05-17T09:12:25.825Z,14.82
2023-05-17T09:14:53.937Z,11.25
2023-05-17T09:17:23.093Z,11.95
2023-05-17T09:19:52.076Z,16.52
2023-05-17T09:22:22.461Z,9.45
2023-05-17T09:24:50.815Z,11.15
2023-05-17T09:27:19.836Z,25.35
2023-05-17T09:29:48.445Z,9.27
2023-05-17T09:32:17.524Z,11.05
2023-05-17T09:34:48.362Z,11.70
2023-05-17T09:37:18.342Z,10.40
2023-05-17T09:39:48.510Z,11.13
2023-05-17T09:42:17.217Z,9.13
2023-05-17T09:44:49.894Z,8.85
2023-05-17T09:47:28.543Z,12.70
2023-05-17T09:50:00.674Z,7.97
2023-05-17T09:52:31.782Z,14.13
2023-05-17T09:55:01.885Z,11.40
2023-05-17T09:57:38.782Z,7.65
2023-05-17T10:00:10.851Z,9.18
2023-05-17T10:02:41.226Z,11.77
2023-05-17T10:05:12.475Z,8.88
2023-05-17T10:07:40.945Z,9.45
2023-05-17T10:10:12.250Z,8.07
2023-05-17T10:12:42.257Z,15.07
2023-05-17T10:15:11.914Z,11.85
2023-05-17T10:17:44.702Z,7.45
2023-05-17T10:20:14.955Z,5.75
2023-05-17T10:22:43.217Z,12.25
2023-05-17T10:25:13.484Z,9.85
2023-05-17T10:27:41.940Z,11.00
2023-05-17T10:30:11.737Z,5.45
2023-05-17T10:32:39.891Z,10.98
2023-05-17T10:35:11.924Z,9.43
2023-05-17T10:37:41.303Z,8.88
2023-05-17T10:40:13.784Z,13.10
2023-05-17T10:42:45.881Z,6.75
2023-05-17T10:45:14.945Z,9.63
2023-05-17T10:47:44.046Z,12.20
2023-05-17T10:50:13.315Z,30.77
2023-05-17T10:52:47.920Z,24.52
2023-05-17T10:55:19.882Z,11.40
2023-05-17T10:58:16.807Z,8.40
2023-05-17T11:00:47.484Z,8.90
2023-05-17T11:03:16.886Z,6.47
2023-05-17T11:05:46.392Z,12.82
2023-05-17T11:08:17.181Z,9.85
2023-05-17T11:11:15.357Z,14.50
2023-05-17T11:13:53.775Z,11.75
2023-05-17T11:16:28.853Z,9.77
2023-05-17T11:18:58.400Z,10.82
2023-05-17T11:21:29.855Z,12.68
2023-05-17T11:24:03.878Z,12.68
2023-05-17T11:26:35.257Z,14.75
2023-05-17T11:29:08.566Z,11.02
2023-05-17T11:31:38.197Z,9.77
2023-05-17T11:34:06.711Z,14.02
2023-05-17T11:36:50.509Z,9.82
2023-05-17T11:39:21.104Z,9.93
2023-05-17T11:41:50.640Z,14.02
2023-05-17T11:44:25.355Z,7.18
2023-05-17T11:46:54.580Z,10.90
2023-05-17T11:49:35.115Z,11.95
2023-05-17T11:52:04.344Z,12.70
2023-05-17T11:54:32.286Z,11.00
2023-05-17T11:57:00.921Z,11.70
2023-05-17T11:59:30.522Z,9.77
2023-05-17T12:01:58.458Z,12.68
2023-05-17T12:04:27.800Z,14.70
2023-05-17T12:06:56.730Z,8.07
2023-05-17T12:09:26.531Z,11.15
2023-05-17T12:11:54.483Z,18.50
2023-05-17T12:14:23.016Z,11.85
2023-05-17T12:16:56.657Z,14.45
2023-05-17T12:19:27.422Z,10.10
2023-05-17T12:21:55.396Z,10.48
2023-05-17T12:24:23.562Z,14.07
2023-05-17T12:26:51.690Z,9.00
2023-05-17T12:29:23.135Z,12.25
2023-05-17T12:31:54.011Z,9.25
2023-05-17T12:34:22.265Z,12.68
2023-05-17T12:36:50.758Z,16.00
2023-05-17T12:39:23.702Z,9.93
2023-05-17T12:41:52.581Z,11.13
2023-05-17T12:44:21.680Z,14.65
2023-05-17T12:46:54.100Z,8.77
2023-05-17T12:49:26.542Z,13.73
2023-05-17T12:51:54.848Z,10.95
2023-05-17T12:54:29.972Z,11.73
2023-05-17T12:56:58.382Z,11.98
2023-05-17T12:59:29.170Z,14.30
2023-05-17T13:01:58.514Z,8.38
2023-05-17T13:04:33.118Z,12.20
2023-05-17T13:07:03.491Z,10.98
2023-05-17T13:09:33.590Z,18.17
2023-05-17T13:12:03.524Z,11.95
2023-05-17T13:14:36.082Z,9.10
2023-05-17T13:17:04.902Z,10.93
2023-05-17T13:19:35.992Z,11.95
2023-05-17T13:22:04.740Z,12.93
2023-05-17T13:24:34.530Z,11.23
2023-05-17T13:27:02.826Z,9.45
2023-05-17T13:29:38.942Z,10.55
2023-05-17T13:32:09.407Z,11.43
2023-05-17T13:34:38.995Z,11.63
2023-05-17T13:37:11.145Z,10.80
2023-05-17T13:39:39.736Z,13.13
2023-05-17T13:42:08.576Z,13.75
2023-05-17T13:44:38.266Z,12.27
2023-05-17T13:47:07.028Z,12.98
2023-05-17T13:49:35.255Z,13.25
2023-05-17T13:52:08.927Z,15.05
2023-05-17T13:54:38.405Z,14.48
2023-05-17T13:57:06.854Z,17.55
2023-05-17T13:59:34.901Z,14.05
2023-05-17T14:02:04.318Z,21.75
2023-05-17T14:04:32.571Z,24.75
2023-05-17T14:07:00.386Z,11.20
2023-05-17T14:09:33.108Z,10.45
2023-05-17T14:12:01.419Z,19.73
2023-05-17T14:14:29.478Z,13.48
2023-05-17T14:16:57.806Z,14.85
2023-05-17T14:19:26.051Z,18.85
2023-05-17T14:21:54.268Z,16.73
2023-05-17T14:24:22.286Z,13.85
2023-05-17T14:26:51.733Z,11.07
2023-05-17T14:29:19.934Z,11.48
2023-05-17T14:31:47.877Z,11.20
2023-05-17T14:34:16.079Z,17.83
2023-05-17T14:36:44.165Z,15.65
2023-05-17T14:39:12.346Z,19.08
2023-05-17T14:41:41.181Z,13.80
2023-05-17T14:44:11.483Z,16.00
2023-05-17T14:46:39.516Z,28.10
2023-05-17T14:49:07.732Z,13.90
2023-05-17T14:51:35.962Z,14.15
2023-05-17T14:54:04.189Z,13.48
2023-05-17T14:56:32.249Z,11.77
2023-05-17T14:59:00.073Z,14.93
2023-05-17T15:01:29.692Z,16.20
2023-05-17T15:03:57.832Z,16.05
2023-05-17T15:06:26.660Z,16.13
2023-05-17T15:08:55.090Z,10.82
2023-05-17T15:11:23.709Z,13.50
2023-05-17T15:13:51.644Z,10.68
2023-05-17T15:16:19.841Z,8.70
2023-05-17T15:18:49.539Z,9.02
2023-05-17T15:21:19.214Z,10.43
2023-05-17T15:23:48.053Z,11.38
2023-05-17T15:26:15.903Z,12.15
2023-05-17T15:28:44.097Z,14.13
2023-05-17T15:31:12.095Z,12.70
2023-05-17T15:33:42.576Z,11.93
2023-05-17T15:36:13.180Z,11.95
2023-05-17T15:38:41.370Z,11.80
2023-05-17T15:41:13.127Z,11.52
2023-05-17T15:43:41.551Z,15.10
2023-05-17T15:46:09.726Z,13.63
2023-05-17T15:48:38.217Z,13.27
2023-05-17T15:51:06.682Z,14.48
2023-05-17T15:53:35.938Z,10.50
2023-05-17T15:56:03.971Z,16.92
2023-05-17T15:58:33.595Z,10.27
2023-05-17T16:01:04.042Z,9.70
2023-05-17T16:03:32.191Z,12.85
2023-05-17T16:06:00.534Z,14.70
2023-05-17T16:08:28.610Z,12.00
2023-05-17T16:10:59.338Z,14.85
2023-05-17T16:13:28.888Z,10.68
2023-05-17T16:15:58.278Z,10.27
2023-05-17T16:18:26.884Z,18.63
2023-05-17T16:21:03.190Z,12.05
2023-05-17T16:23:31.631Z,13.18
2023-05-17T16:26:00.907Z,9.77
2023-05-17T16:28:29.375Z,14.93
2023-05-17T16:31:02.102Z,12.10
2023-05-17T16:33:30.499Z,14.80
2023-05-17T16:35:58.871Z,19.80
2023-05-17T16:38:27.164Z,15.32
2023-05-17T16:40:55.572Z,9.50
2023-05-17T16:43:25.025Z,17.85
2023-05-17T16:45:53.169Z,14.25
2023-05-17T16:48:21.339Z,11.82
2023-05-17T16:50:49.786Z,12.15
2023-05-17T16:53:17.864Z,10.70
2023-05-17T16:55:45.952Z,11.18
2023-05-17T16:58:14.206Z,16.50
2023-05-17T17:00:43.518Z,12.45
2023-05-17T17:03:11.727Z,14.82
2023-05-17T17:05:39.984Z,15.32
2023-05-17T17:08:07.918Z,14.85
2023-05-17T17:10:37.156Z,14.73
2023-05-17T17:13:05.307Z,18.45
2023-05-17T17:15:34.004Z,22.40
2023-05-17T17:18:05.045Z,15.77
2023-05-17T17:20:33.334Z,15.27
2023-05-17T17:23:01.447Z,16.55
2023-05-17T17:25:29.646Z,14.82
2023-05-17T17:27:57.681Z,13.25
2023-05-17T17:30:25.974Z,12.27
2023-05-17T17:32:54.087Z,13.40
2023-05-17T17:35:23.624Z,12.55
2023-05-17T17:37:53.273Z,17.67
2023-05-17T17:40:21.653Z,16.10
2023-05-17T17:42:49.710Z,16.10
2023-05-17T17:45:17.497Z,12.18
2023-05-17T17:47:45.577Z,13.40
2023-05-17T17:50:13.536Z,16.00
2023-05-17T17:52:43.021Z,14.13
2023-05-17T17:55:13.206Z,15.55
2023-05-17T17:57:41.875Z,14.05
2023-05-17T18:00:12.030Z,14.63
2023-05-17T18:02:40.670Z,16.98
2023-05-17T18:05:09.799Z,13.95
2023-05-17T18:07:37.806Z,15.88
2023-05-17T18:10:08.448Z,17.27
2023-05-17T18:12:36.364Z,16.90
2023-05-17T18:15:05.196Z,16.63
2023-05-17T18:17:33.107Z,19.63
2023-05-17T18:20:01.309Z,11.38
2023-05-17T18:22:30.253Z,17.40
2023-05-17T18:24:58.251Z,13.45
2023-05-17T18:27:27.894Z,15.13
2023-05-17T18:29:55.965Z,16.48
2023-05-17T18:32:24.107Z,19.42
2023-05-17T18:34:52.062Z,11.45
2023-05-17T18:37:20.094Z,10.25
2023-05-17T18:39:48.029Z,15.18
2023-05-17T18:42:16.177Z,19.85
2023-05-17T18:44:45.393Z,12.65
2023-05-17T18:47:13.514Z,18.70
2023-05-17T18:49:45.015Z,7.55
2023-05-17T18:52:13.101Z,12.10
2023-05-17T18:54:41.007Z,17.45
2023-05-17T18:57:11.485Z,11.70
2023-05-17T18:59:39.391Z,15.77
2023-05-17T19:02:08.984Z,11.70
2023-05-17T19:04:37.738Z,17.13
2023-05-17T19:07:06.155Z,20.10
2023-05-17T19:09:34.691Z,13.48
2023-05-17T19:12:02.893Z,15.18
2023-05-17T19:14:32.167Z,13.82
2023-05-17T19:17:00.254Z,13.60
2023-05-17T19:19:31.176Z,11.43
2023-05-17T19:22:00.694Z,16.35
2023-05-17T19:24:28.650Z,12.57
2023-05-17T19:26:56.724Z,10.93
2023-05-17T19:29:27.187Z,9.35
2023-05-17T19:31:55.340Z,13.05
2023-05-17T19:34:23.591Z,9.23
2023-05-17T19:36:52.910Z,13.05
2023-05-17T19:39:21.334Z,21.52
2023-05-17T19:41:49.448Z,12.88
2023-05-17T19:44:17.385Z,12.23
2023-05-17T19:46:45.840Z,11.65
2023-05-17T19:49:13.942Z,13.00
2023-05-17T19:51:41.849Z,12.25
2023-05-17T19:54:11.263Z,9.45
2023-05-17T19:56:39.472Z,14.50
2023-05-17T19:59:07.427Z,10.35
2023-05-17T20:01:35.498Z,15.05
2023-05-17T20:04:03.857Z,13.02
2023-05-17T20:06:32.458Z,17.02
2023-05-17T20:09:00.540Z,16.63
2023-05-17T20:11:30.193Z,15.27
2023-05-17T20:13:58.546Z,15.02
2023-05-17T20:16:28.203Z,11.13
2023-05-17T20:18:58.199Z,14.88
2023-05-17T20:21:26.601Z,10.80
2023-05-17T20:24:01.022Z,9.70
2023-05-17T20:26:32.026Z,14.93
2023-05-17T20:29:00.413Z,9.73
2023-05-17T20:31:28.924Z,11.90
2023-05-17T20:33:57.071Z,13.05
2023-05-17T20:36:25.810Z,11.02
2023-05-17T20:38:54.238Z,10.02
2023-05-17T20:41:22.334Z,11.43
2023-05-17T20:43:51.946Z,12.93
2023-05-17T20:46:19.968Z,12.75
2023-05-17T20:48:49.834Z,14.65
2023-05-17T20:51:19.565Z,13.02
2023-05-17T20:53:47.883Z,9.27
2023-05-17T20:56:16.397Z,19.13
2023-05-17T20:58:44.267Z,11.20
2023-05-17T21:01:13.901Z,8.65
2023-05-17T21:03:43.465Z,14.07
2023-05-17T21:06:11.626Z,15.00
2023-05-17T21:08:40.232Z,10.02
2023-05-17T21:11:08.225Z,9.98
2023-05-17T21:13:36.350Z,12.45
2023-05-17T21:16:04.711Z,10.95
2023-05-17T21:18:34.125Z,10.77
2023-05-17T21:21:02.088Z,10.40
2023-05-17T21:23:29.986Z,12.27
2023-05-17T21:25:58.037Z,10.02
2023-05-17T21:28:25.924Z,14.18
2023-05-17T21:30:54.196Z,8.80
2023-05-17T21:33:22.124Z,16.00
2023-05-17T21:35:51.576Z,8.23
2023-05-17T21:38:19.553Z,13.63
2023-05-17T21:40:47.559Z,12.40
2023-05-17T21:43:15.904Z,13.80
2023-05-17T21:45:43.982Z,12.32
2023-05-17T21:48:11.980Z,11.55
2023-05-17T21:50:40.081Z,13.48
2023-05-17T21:53:09.462Z,10.95
2023-05-17T21:55:56.256Z,9.65
2023-05-17T21:58:25.196Z,11.18
2023-05-17T22:00:53.362Z,12.18
2023-05-17T22:03:21.494Z,11.90
2023-05-17T22:05:49.478Z,15.00
2023-05-17T22:08:18.718Z,20.48
2023-05-17T22:10:46.711Z,10.60
2023-05-17T22:13:16.813Z,11.38
2023-05-17T22:15:45.304Z,13.32
2023-05-17T22:18:13.932Z,11.38
2023-05-17T22:20:42.125Z,9.40
2023-05-17T22:23:10.340Z,9.70
2023-05-17T22:25:39.995Z,9.07
2023-05-17T22:28:07.986Z,12.00
2023-05-17T22:30:36.105Z,12.02
2023-05-17T22:33:03.858Z,9.75
2023-05-17T22:35:31.949Z,9.68
2023-05-17T22:37:59.979Z,12.68
2023-05-17T22:40:28.129Z,14.90
2023-05-17T22:42:59.307Z,13.18
2023-05-17T22:45:32.918Z,14.35
2023-05-17T22:50:34.677Z,12.63
2023-05-17T22:53:03.686Z,13.93
2023-05-17T22:55:31.958Z,11.85
2023-05-17T22:58:01.737Z,6.07
2023-05-17T23:00:29.599Z,14.77
2023-05-17T23:02:57.866Z,14.57
2023-05-17T23:05:25.966Z,17.25
2023-05-17T23:07:54.240Z,10.55
2023-05-17T23:10:22.513Z,12.30
2023-05-17T23:12:52.247Z,15.68
2023-05-17T23:15:22.140Z,16.95
2023-05-17T23:17:51.025Z,8.27
2023-05-17T23:20:20.062Z,12.77
2023-05-17T23:22:48.667Z,8.43
2023-05-17T23:25:16.801Z,11.85
2023-05-17T23:27:45.117Z,8.68
2023-05-17T23:30:13.522Z,19.30
2023-05-17T23:32:46.757Z,15.63
2023-05-17T23:35:14.851Z,16.30
2023-05-17T23:37:43.369Z,11.30
2023-05-17T23:40:12.838Z,10.23
2023-05-17T23:42:41.332Z,9.95
2023-05-17T23:45:09.943Z,5.72
2023-05-17T23:47:40.763Z,10.52
2023-05-17T23:50:12.193Z,11.45
2023-05-17T23:52:40.337Z,11.48
2023-05-17T23:55:09.080Z,7.70
2023-05-17T23:57:37.819Z,12.38
